Time;durP1;ratioP1;P1;durP2;ratioP2;P2;SDS_P1;SDS_P2;PMS_P1;PMS_P2;Temp;Humidity;BMP_temperature;BMP_pressure;BME280_temperature;BME280_humidity;BME280_pressure;Samples;Min_cycle;Max_cycle;Signal;HPM_P1;HPM_P2
2023/12/09 00:01:02;;;;;;;;;;;;;;;6.13;100.00;100915.25;4983888;28;20025;-72
2023/12/09 00:03:27;;;;;;;;;;;;;;;6.02;100.00;100910.53;4982829;28;19932;-73
2023/12/09 00:05:52;;;;;;;;;;;;;;;6.03;100.00;100909.59;4985901;28;20027;-73
2023/12/09 00:08:17;;;;;;;;;;;;;;;6.09;100.00;100914.53;4980816;28;19924;-72
2023/12/09 00:10:43;;;;;;;;;;;;;;;6.19;100.00;100911.34;4984101;28;19926;-72
2023/12/09 00:13:08;;;;;;;;;;;;;;;6.06;100.00;100913.88;4988897;28;19925;-72
2023/12/09 00:15:33;;;;;;;;;;;;;;;6.11;100.00;100915.31;4986215;28;19933;-72
2023/12/09 00:17:59;;;;;;;;;;;;;;;6.07;100.00;100920.91;4980864;28;19932;-72
2023/12/09 00:20:24;;;;;;;;;;;;;;;6.05;100.00;100912.16;4983013;28;19983;-72
2023/12/09 00:22:49;;;;;;;;;;;;;;;5.73;100.00;100886.38;4964572;28;20604;-72
2023/12/09 00:25:14;;;;;;;;;;;;;;;5.93;100.00;100917.22;4983669;28;20284;-72
2023/12/09 00:27:40;;;;;;;;;;;;;;;5.91;100.00;100907.59;4992359;28;20076;-72
2023/12/09 00:30:08;;;;;;;;;;;;;;;5.93;100.00;100914.56;4990401;28;19967;-73
2023/12/09 00:32:33;;;;;;;;;;;;;;;5.94;100.00;100905.63;4987724;28;19951;-73
2023/12/09 00:35:00;;;;;;;;;;;;;;;5.82;100.00;100906.31;4970741;28;19922;-73
2023/12/09 00:37:25;;;;;;;;;;;;;;;5.91;100.00;100911.13;4986139;28;20055;-73
2023/12/09 00:39:50;;;;;;;;;;;;;;;5.97;100.00;100915.22;4988593;28;19944;-73
2023/12/09 00:42:16;;;;;;;;;;;;;;;5.91;100.00;100923.56;4982543;28;20275;-72
2023/12/09 00:44:42;;;;;;;;;;;;;;;5.95;100.00;100919.78;4983861;28;19925;-72
2023/12/09 00:47:07;;;;;;;;;;;;;;;5.88;100.00;100921.97;4983062;28;19980;-72
2023/12/09 00:49:32;;;;;;;;;;;;;;;5.92;100.00;100927.97;4986254;28;19929;-72
2023/12/09 00:51:57;;;;;;;;;;;;;;;6.00;100.00;100928.41;4981921;28;20038;-73
2023/12/09 00:54:22;;;;;;;;;;;;;;;5.79;100.00;100926.00;4988683;28;20260;-72
2023/12/09 00:56:48;;;;;;;;;;;;;;;5.84;100.00;100925.72;4985343;28;20443;-73
2023/12/09 00:59:13;;;;;;;;;;;;;;;5.85;100.00;100930.13;4984326;28;20343;-72
2023/12/09 01:01:38;;;;;;;;;;;;;;;5.83;100.00;100932.00;4986173;28;20445;-73
2023/12/09 01:04:05;;;;;;;;;;;;;;;5.71;100.00;100939.72;4985271;28;20256;-73
2023/12/09 01:06:30;;;;;;;;;;;;;;;5.87;100.00;100925.56;4987642;28;19926;-73
2023/12/09 01:08:56;;;;;;;;;;;;;;;5.81;100.00;100923.25;4986739;28;20577;-72
2023/12/09 01:11:21;;;;;;;;;;;;;;;5.89;100.00;100912.13;4980067;28;20415;-73
2023/12/09 01:13:46;;;;;;;;;;;;;;;5.94;100.00;100916.28;4981775;28;20089;-72
2023/12/09 01:16:11;;;;;;;;;;;;;;;5.80;100.00;100921.53;4983100;28;19929;-73
2023/12/09 01:18:37;;;;;;;;;;;;;;;5.89;100.00;100901.47;4995239;28;19964;-72
2023/12/09 01:21:02;;;;;;;;;;;;;;;5.84;100.00;100913.25;4999165;28;20360;-73
2023/12/09 01:23:27;;;;;;;;;;;;;;;5.73;100.00;100915.69;4995164;28;20271;-73
2023/12/09 01:25:52;;;;;;;;;;;;;;;5.54;100.00;100921.16;4978897;28;19936;-72
2023/12/09 01:28:17;;;;;;;;;;;;;;;5.70;100.00;100915.84;4995833;28;19961;-72
2023/12/09 01:30:43;;;;;;;;;;;;;;;5.80;100.00;100910.84;4995087;28;19921;-72
2023/12/09 01:33:08;;;;;;;;;;;;;;;5.83;100.00;100914.19;4996690;28;20383;-72
2023/12/09 01:35:33;;;;;;;;;;;;;;;5.55;100.00;100925.56;4980319;28;20352;-73
2023/12/09 01:37:59;;;;;;;;;;;;;;;5.68;100.00;100923.94;4995815;28;19921;-73
2023/12/09 01:40:24;;;;;;;;;;;;;;;5.65;100.00;100926.78;4998190;28;19955;-73
2023/12/09 01:42:49;;;;;;;;;;;;;;;5.63;100.00;100906.47;4979069;28;20445;-72
2023/12/09 01:45:14;;;;;;;;;;;;;;;5.52;100.00;100907.06;4991854;28;19933;-72
2023/12/09 01:47:40;;;;;;;;;;;;;;;5.58;100.00;100908.53;4988207;28;20742;-73
2023/12/09 01:50:06;;;;;;;;;;;;;;;5.39;100.00;100910.44;4986946;28;19918;-73
2023/12/09 01:52:31;;;;;;;;;;;;;;;5.38;100.00;100899.84;4987380;28;19925;-72
2023/12/09 01:54:57;;;;;;;;;;;;;;;5.56;100.00;100901.50;4977851;28;19959;-72
2023/12/09 01:57:22;;;;;;;;;;;;;;;5.42;100.00;100900.56;4996153;28;19921;-72
2023/12/09 01:59:47;;;;;;;;;;;;;;;5.37;100.00;100896.34;4992284;28;19921;-72
2023/12/09 02:02:12;;;;;;;;;;;;;;;5.32;100.00;100885.09;4978230;28;19921;-72
2023/12/09 02:04:38;;;;;;;;;;;;;;;5.45;100.00;100874.63;4993255;28;19928;-72
2023/12/09 02:07:03;;;;;;;;;;;;;;;5.45;100.00;100869.28;4992722;28;19930;-73
2023/12/09 02:09:28;;;;;;;;;;;;;;;5.40;100.00;100874.00;4994153;28;19929;-72
2023/12/09 02:11:56;;;;;;;;;;;;;;;5.39;100.00;100877.59;4996584;28;19964;-72
2023/12/09 02:14:48;;;;;;;;;;;;;;;5.51;100.00;100868.06;4997093;28;20759;-72
2023/12/09 02:17:15;;;;;;;;;;;;;;;5.50;100.00;100858.38;4996075;28;20021;-72
2023/12/09 02:19:41;;;;;;;;;;;;;;;5.30;100.00;100863.00;4988580;28;19972;-73
2023/12/09 02:22:06;;;;;;;;;;;;;;;5.40;100.00;100858.03;4989192;28;20033;-72
2023/12/09 02:24:32;;;;;;;;;;;;;;;5.30;100.00;100865.66;4974746;28;19966;-72
2023/12/09 02:27:07;;;;;;;;;;;;;;;5.21;100.00;100853.72;4992361;28;19943;-72
2023/12/09 02:29:33;;;;;;;;;;;;;;;5.16;100.00;100855.78;4992468;28;19928;-72
2023/12/09 02:32:00;;;;;;;;;;;;;;;5.55;100.00;100857.19;4995253;28;19921;-72
2023/12/09 02:34:25;;;;;;;;;;;;;;;5.37;100.00;100860.84;4991019;28;20317;-73
2023/12/09 02:36:50;;;;;;;;;;;;;;;5.42;100.00;100864.13;4993769;28;19933;-72
2023/12/09 02:39:15;;;;;;;;;;;;;;;5.37;100.00;100871.50;4991908;28;20619;-73
2023/12/09 02:41:41;;;;;;;;;;;;;;;5.13;100.00;100865.75;4995701;28;20432;-72
2023/12/09 02:44:06;;;;;;;;;;;;;;;5.12;100.00;100861.38;4993245;28;20410;-72
2023/12/09 02:46:31;;;;;;;;;;;;;;;5.21;100.00;100850.19;4989947;28;19940;-72
2023/12/09 02:48:58;;;;;;;;;;;;;;;5.34;100.00;100845.06;4995916;28;19941;-72
2023/12/09 02:51:24;;;;;;;;;;;;;;;5.31;100.00;100830.13;4990112;28;19921;-72
2023/12/09 02:53:49;;;;;;;;;;;;;;;5.28;100.00;100837.44;4991801;28;19932;-72
2023/12/09 02:56:14;;;;;;;;;;;;;;;5.21;100.00;100831.56;4991402;28;19983;-72
2023/12/09 02:58:39;;;;;;;;;;;;;;;5.26;100.00;100826.84;4976487;28;20020;-73
2023/12/09 03:01:05;;;;;;;;;;;;;;;5.31;100.00;100826.59;4990580;28;20008;-72
2023/12/09 03:03:30;;;;;;;;;;;;;;;5.44;100.00;100824.09;4977880;28;20255;-73
2023/12/09 03:05:55;;;;;;;;;;;;;;;5.36;100.00;100822.75;4993836;28;20000;-73
2023/12/09 03:08:20;;;;;;;;;;;;;;;5.28;100.00;100821.44;4990325;28;19932;-73
2023/12/09 03:10:45;;;;;;;;;;;;;;;5.33;100.00;100820.25;4990903;28;19940;-73
2023/12/09 03:13:11;;;;;;;;;;;;;;;5.16;100.00;100810.53;4994055;28;19925;-73
2023/12/09 03:15:36;;;;;;;;;;;;;;;5.19;100.00;100814.81;4988890;28;19932;-72
2023/12/09 03:18:01;;;;;;;;;;;;;;;5.20;100.00;100795.25;4989359;28;20008;-72
2023/12/09 03:20:26;;;;;;;;;;;;;;;5.25;100.00;100786.06;4992580;28;19925;-72
2023/12/09 03:22:52;;;;;;;;;;;;;;;5.30;100.00;100796.44;4994927;28;19960;-72
2023/12/09 03:25:17;;;;;;;;;;;;;;;5.31;100.00;100802.63;4993715;28;19944;-73
2023/12/09 03:27:42;;;;;;;;;;;;;;;5.21;100.00;100811.13;4994703;28;19959;-72
2023/12/09 03:30:08;;;;;;;;;;;;;;;5.13;100.00;100799.22;4991048;28;19921;-73
2023/12/09 03:32:33;;;;;;;;;;;;;;;5.12;100.00;100802.81;4991229;28;19972;-72
2023/12/09 03:34:58;;;;;;;;;;;;;;;5.20;100.00;100787.25;4990700;28;19921;-72
2023/12/09 03:37:23;;;;;;;;;;;;;;;5.17;100.00;100779.44;4991596;28;20452;-73
2023/12/09 03:39:49;;;;;;;;;;;;;;;5.25;100.00;100786.06;4991266;28;20354;-73
2023/12/09 03:42:14;;;;;;;;;;;;;;;5.05;100.00;100767.69;4987772;28;20348;-73
2023/12/09 03:44:39;;;;;;;;;;;;;;;5.21;100.00;100789.84;4990876;28;19983;-73
2023/12/09 03:47:04;;;;;;;;;;;;;;;5.32;100.00;100789.25;4975117;28;19972;-73
2023/12/09 03:49:30;;;;;;;;;;;;;;;5.38;100.00;100804.00;4992218;28;19922;-73
2023/12/09 03:51:55;;;;;;;;;;;;;;;5.54;100.00;100796.88;4990757;28;20565;-73
2023/12/09 03:54:20;;;;;;;;;;;;;;;5.70;100.00;100782.66;4993394;28;19936;-74
2023/12/09 03:56:45;;;;;;;;;;;;;;;5.55;100.00;100797.72;4989562;28;19972;-72
2023/12/09 03:59:11;;;;;;;;;;;;;;;5.63;100.00;100802.59;4996239;28;20392;-74
2023/12/09 04:01:36;;;;;;;;;;;;;;;5.60;100.00;100798.31;4992431;28;19921;-74
2023/12/09 04:04:01;;;;;;;;;;;;;;;5.62;100.00;100799.09;4995701;28;19921;-74
2023/12/09 04:06:27;;;;;;;;;;;;;;;5.58;100.00;100802.88;4997511;28;19961;-73
2023/12/09 04:08:52;;;;;;;;;;;;;;;5.81;100.00;100800.66;4996246;28;19948;-73
2023/12/09 04:11:17;;;;;;;;;;;;;;;5.62;100.00;100812.41;4995420;28;20051;-73
2023/12/09 04:13:42;;;;;;;;;;;;;;;5.71;100.00;100795.88;4997744;28;20020;-73
2023/12/09 04:16:08;;;;;;;;;;;;;;;5.64;100.00;100798.97;4988634;28;19925;-73
2023/12/09 04:18:33;;;;;;;;;;;;;;;5.62;100.00;100788.44;4986844;28;19921;-72
2023/12/09 04:20:58;;;;;;;;;;;;;;;5.58;100.00;100789.56;4989951;28;20016;-73
2023/12/09 04:23:24;;;;;;;;;;;;;;;5.39;100.00;100789.75;4990873;28;20363;-73
2023/12/09 04:25:49;;;;;;;;;;;;;;;5.54;100.00;100772.03;4991896;28;19926;-73
2023/12/09 04:28:15;;;;;;;;;;;;;;;5.58;100.00;100786.00;4991057;28;19922;-73
2023/12/09 04:30:40;;;;;;;;;;;;;;;5.45;100.00;100783.19;4996052;28;20360;-73
2023/12/09 04:33:05;;;;;;;;;;;;;;;5.58;100.00;100784.22;4995434;28;20005;-73
2023/12/09 04:35:30;;;;;;;;;;;;;;;5.42;100.00;100764.75;4992931;28;19964;-72
2023/12/09 04:37:56;;;;;;;;;;;;;;;5.47;100.00;100791.97;4993006;28;20331;-72
2023/12/09 04:40:21;;;;;;;;;;;;;;;5.47;100.00;100798.16;4990456;28;20065;-73
2023/12/09 04:42:46;;;;;;;;;;;;;;;5.55;100.00;100789.72;4989727;28;20040;-73
2023/12/09 04:45:11;;;;;;;;;;;;;;;5.55;100.00;100797.72;4991048;28;20342;-73
2023/12/09 04:47:37;;;;;;;;;;;;;;;5.44;100.00;100801.00;4993487;28;20332;-73
2023/12/09 04:50:04;;;;;;;;;;;;;;;5.47;100.00;100798.16;4992095;28;21016;-72
2023/12/09 04:52:30;;;;;;;;;;;;;;;5.32;100.00;100789.25;4996097;28;19983;-73
2023/12/09 04:54:55;;;;;;;;;;;;;;;5.40;100.00;100788.78;4997495;28;19928;-73
2023/12/09 04:57:20;;;;;;;;;;;;;;;5.38;100.00;100777.38;4995400;28;19925;-73
2023/12/09 04:59:46;;;;;;;;;;;;;;;5.34;100.00;100789.13;4997952;28;19960;-73
2023/12/09 05:02:11;;;;;;;;;;;;;;;5.44;100.00;100768.16;4995810;28;20009;-72
2023/12/09 05:04:36;;;;;;;;;;;;;;;5.27;100.00;100774.47;4995870;28;19994;-73
2023/12/09 05:07:02;;;;;;;;;;;;;;;5.12;100.00;100770.88;4996525;28;20021;-73
2023/12/09 05:09:27;;;;;;;;;;;;;;;5.00;100.00;100762.63;4997624;28;19921;-72
2023/12/09 05:11:52;;;;;;;;;;;;;;;5.27;100.00;100763.84;4996551;28;20287;-73
2023/12/09 05:14:18;;;;;;;;;;;;;;;5.28;100.00;100765.53;4995636;28;19926;-72
2023/12/09 05:16:43;;;;;;;;;;;;;;;5.28;100.00;100758.41;4977789;28;19965;-72
2023/12/09 05:19:08;;;;;;;;;;;;;;;5.28;100.00;100761.06;4990205;28;19926;-73
2023/12/09 05:21:33;;;;;;;;;;;;;;;5.14;100.00;100761.84;4994583;28;20001;-72
2023/12/09 05:23:58;;;;;;;;;;;;;;;5.07;100.00;100760.47;4976083;28;20406;-72
2023/12/09 05:26:24;;;;;;;;;;;;;;;5.25;100.00;100764.78;4995014;28;20434;-73
2023/12/09 05:28:50;;;;;;;;;;;;;;;5.19;100.00;100772.22;4977913;28;19956;-73
2023/12/09 05:31:15;;;;;;;;;;;;;;;5.04;100.00;100760.63;4994539;28;19921;-73
2023/12/09 05:33:41;;;;;;;;;;;;;;;5.28;100.00;100760.22;4990932;28;20380;-72
2023/12/09 05:36:06;;;;;;;;;;;;;;;5.22;100.00;100756.97;4991773;28;20522;-73
2023/12/09 05:38:31;;;;;;;;;;;;;;;5.23;100.00;100765.78;4990439;28;19928;-73
2023/12/09 05:40:57;;;;;;;;;;;;;;;5.37;100.00;100770.34;4975747;28;20644;-72
2023/12/09 05:43:22;;;;;;;;;;;;;;;5.18;100.00;100771.38;4978356;28;20391;-73
2023/12/09 05:45:47;;;;;;;;;;;;;;;5.25;100.00;100755.91;4977063;28;20379;-73
2023/12/09 05:48:12;;;;;;;;;;;;;;;5.29;100.00;100759.28;4989311;28;21404;-72
2023/12/09 05:50:37;;;;;;;;;;;;;;;5.16;100.00;100759.97;4992872;28;19984;-73
2023/12/09 05:53:03;;;;;;;;;;;;;;;5.34;100.00;100752.75;4990691;28;19931;-73
2023/12/09 05:55:28;;;;;;;;;;;;;;;5.22;100.00;100759.63;4995861;28;20396;-73
2023/12/09 05:57:53;;;;;;;;;;;;;;;5.09;100.00;100758.59;4996640;28;20264;-73
2023/12/09 06:00:18;;;;;;;;;;;;;;;5.04;100.00;100753.53;4975018;28;20016;-73
2023/12/09 06:02:44;;;;;;;;;;;;;;;5.10;100.00;100753.19;4989289;28;19926;-73
2023/12/09 06:05:09;;;;;;;;;;;;;;;5.05;100.00;100751.72;4987321;28;19967;-73
2023/12/09 06:07:34;;;;;;;;;;;;;;;5.06;100.00;100756.97;4989112;28;20028;-73
2023/12/09 06:09:59;;;;;;;;;;;;;;;5.09;100.00;100751.47;4974101;28;20036;-72
2023/12/09 06:12:25;;;;;;;;;;;;;;;5.14;100.00;100748.53;4994116;28;19960;-73
2023/12/09 06:14:51;;;;;;;;;;;;;;;5.06;100.00;100738.34;4995651;28;20612;-73
2023/12/09 06:17:17;;;;;;;;;;;;;;;5.09;100.00;100739.94;4989812;28;20359;-72
2023/12/09 06:19:42;;;;;;;;;;;;;;;5.17;100.00;100739.50;4974621;28;20032;-73
2023/12/09 06:22:08;;;;;;;;;;;;;;;5.16;100.00;100736.00;4994845;28;19963;-73
2023/12/09 06:24:33;;;;;;;;;;;;;;;5.17;100.00;100720.88;4971887;28;20044;-74
2023/12/09 06:26:58;;;;;;;;;;;;;;;5.20;100.00;100718.91;4993995;28;19929;-72
2023/12/09 06:29:23;;;;;;;;;;;;;;;5.06;100.00;100733.00;4975339;28;20333;-72
2023/12/09 06:31:49;;;;;;;;;;;;;;;5.14;100.00;100721.91;4978363;28;20032;-73
2023/12/09 06:34:14;;;;;;;;;;;;;;;5.17;100.00;100716.44;4977968;28;20412;-73
2023/12/09 06:36:39;;;;;;;;;;;;;;;5.19;100.00;100722.53;4988158;28;20391;-73
2023/12/09 06:39:05;;;;;;;;;;;;;;;5.06;100.00;100703.75;4976846;28;19925;-72
2023/12/09 06:41:30;;;;;;;;;;;;;;;4.96;100.00;100705.19;4980489;28;19922;-73
2023/12/09 06:43:56;;;;;;;;;;;;;;;5.00;100.00;100700.56;4991014;28;20394;-73
2023/12/09 06:46:21;;;;;;;;;;;;;;;5.00;100.00;100705.91;4994344;28;19932;-74
2023/12/09 06:48:46;;;;;;;;;;;;;;;5.16;100.00;100674.78;4991671;28;20004;-72
2023/12/09 06:51:15;;;;;;;;;;;;;;;5.18;100.00;100669.34;4990574;28;19968;-73
2023/12/09 06:53:41;;;;;;;;;;;;;;;5.19;100.00;100679.06;4993479;28;19983;-72
2023/12/09 06:56:06;;;;;;;;;;;;;;;5.21;100.00;100678.03;4993128;28;20255;-72
2023/12/09 06:58:31;;;;;;;;;;;;;;;5.25;100.00;100679.59;4989990;28;20276;-73
2023/12/09 07:00:56;;;;;;;;;;;;;;;5.11;100.00;100674.19;4972546;28;20392;-72
2023/12/09 07:03:22;;;;;;;;;;;;;;;5.16;100.00;100672.13;4988585;28;20359;-72
2023/12/09 07:05:47;;;;;;;;;;;;;;;5.24;100.00;100661.03;4989355;28;19925;-72
2023/12/09 07:08:12;;;;;;;;;;;;;;;5.20;100.00;100651.50;4993377;28;19917;-72
2023/12/09 07:10:37;;;;;;;;;;;;;;;5.18;100.00;100637.41;4990477;28;19921;-74
2023/12/09 07:13:04;;;;;;;;;;;;;;;5.28;100.00;100632.44;4972646;28;19929;-73
2023/12/09 07:15:30;;;;;;;;;;;;;;;5.22;100.00;100626.53;4992159;28;20524;-72
2023/12/09 07:17:55;;;;;;;;;;;;;;;5.23;100.00;100609.59;4972563;28;19921;-73
2023/12/09 07:20:20;;;;;;;;;;;;;;;5.26;100.00;100608.56;4991606;28;19925;-73
2023/12/09 07:22:45;;;;;;;;;;;;;;;5.28;100.00;100606.66;5002223;28;19964;-73
2023/12/09 07:25:11;;;;;;;;;;;;;;;5.36;100.00;100599.09;4968776;28;19932;-73
2023/12/09 07:27:36;;;;;;;;;;;;;;;5.44;100.00;100625.25;4969069;28;19948;-72
2023/12/09 07:30:01;;;;;;;;;;;;;;;5.48;100.00;100616.13;4988135;28;19981;-73
2023/12/09 07:32:27;;;;;;;;;;;;;;;5.43;100.00;100612.03;4984653;28;20064;-73
2023/12/09 07:34:52;;;;;;;;;;;;;;;5.33;100.00;100591.28;4989363;28;19921;-73
2023/12/09 07:37:17;;;;;;;;;;;;;;;5.38;100.00;100609.63;4987674;28;19928;-72
2023/12/09 07:39:42;;;;;;;;;;;;;;;5.36;100.00;100620.38;4970092;28;19925;-72
2023/12/09 07:42:08;;;;;;;;;;;;;;;5.50;100.00;100627.56;4988204;28;20383;-73
2023/12/09 07:44:33;;;;;;;;;;;;;;;5.64;100.00;100612.53;4987309;28;20356;-73
2023/12/09 07:46:58;;;;;;;;;;;;;;;5.43;100.00;100602.22;4984281;28;20414;-72
2023/12/09 07:49:23;;;;;;;;;;;;;;;5.59;100.00;100595.97;4992318;28;20328;-73
2023/12/09 07:51:48;;;;;;;;;;;;;;;5.58;100.00;100596.91;4983559;28;20392;-72
2023/12/09 07:54:14;;;;;;;;;;;;;;;5.63;100.00;100594.84;4969295;28;19925;-73
2023/12/09 07:56:39;;;;;;;;;;;;;;;5.58;100.00;100580.94;4990696;28;19964;-72
2023/12/09 07:59:04;;;;;;;;;;;;;;;5.76;100.00;100592.28;4987249;28;20280;-73
2023/12/09 08:01:30;;;;;;;;;;;;;;;5.80;100.00;100588.47;4987180;28;19921;-73
2023/12/09 08:03:55;;;;;;;;;;;;;;;5.79;100.00;100586.75;4999801;28;19925;-73
2023/12/09 08:06:20;;;;;;;;;;;;;;;5.76;100.00;100584.28;4983917;28;19925;-75
2023/12/09 08:08:50;;;;;;;;;;;;;;;5.81;100.00;100574.19;4979803;28;20304;-73
2023/12/09 08:11:15;;;;;;;;;;;;;;;5.76;100.00;100592.28;4987790;28;20424;-74
2023/12/09 08:13:42;;;;;;;;;;;;;;;5.74;100.00;100594.16;4981695;28;20384;-73
2023/12/09 08:16:08;;;;;;;;;;;;;;;5.89;100.00;100600.38;4982872;28;19921;-73
2023/12/09 08:18:33;;;;;;;;;;;;;;;5.92;100.00;100597.50;4986859;28;19979;-73
2023/12/09 08:20:58;;;;;;;;;;;;;;;6.02;100.00;100603.16;4984874;28;20412;-73
2023/12/09 08:23:24;;;;;;;;;;;;;;;6.12;100.00;100596.31;4984681;28;20539;-72
2023/12/09 08:25:49;;;;;;;;;;;;;;;6.02;100.00;100592.50;4969476;28;19996;-72
2023/12/09 08:28:14;;;;;;;;;;;;;;;5.91;100.00;100586.00;4990269;28;19921;-75
2023/12/09 08:30:40;;;;;;;;;;;;;;;6.06;100.00;100588.69;4972480;28;19921;-73
2023/12/09 08:33:05;;;;;;;;;;;;;;;6.02;100.00;100595.16;4972665;28;19965;-72
2023/12/09 08:35:30;;;;;;;;;;;;;;;6.15;100.00;100598.78;4990568;28;20045;-72
2023/12/09 08:37:55;;;;;;;;;;;;;;;6.10;100.00;100599.03;5008247;28;19918;-73
2023/12/09 08:40:20;;;;;;;;;;;;;;;6.17;100.00;100582.69;4992661;28;20012;-73
2023/12/09 08:42:46;;;;;;;;;;;;;;;6.14;100.00;100581.06;4992312;28;19928;-72
2023/12/09 08:45:12;;;;;;;;;;;;;;;6.17;100.00;100580.88;4973872;28;19936;-72
2023/12/09 08:47:37;;;;;;;;;;;;;;;6.23;100.00;100568.97;4989353;28;20003;-73
2023/12/09 08:50:04;;;;;;;;;;;;;;;6.27;100.00;100555.31;4988753;28;19925;-73
2023/12/09 08:52:29;;;;;;;;;;;;;;;6.26;100.00;100558.94;4991007;28;19927;-72
2023/12/09 08:54:54;;;;;;;;;;;;;;;6.21;100.00;100558.41;4972750;28;19925;-73
2023/12/09 08:57:20;;;;;;;;;;;;;;;6.48;100.00;100548.69;4993530;28;19925;-72
2023/12/09 08:59:45;;;;;;;;;;;;;;;6.24;100.00;100552.84;4972310;28;20039;-72
2023/12/09 09:02:10;;;;;;;;;;;;;;;6.43;100.00;100543.69;4987602;28;19918;-72
2023/12/09 09:04:35;;;;;;;;;;;;;;;6.44;100.00;100554.22;4987848;28;19932;-72
2023/12/09 09:07:00;;;;;;;;;;;;;;;6.42;100.00;100549.97;4975036;28;19968;-73
2023/12/09 09:09:26;;;;;;;;;;;;;;;6.39;100.00;100537.66;4989317;28;19922;-72
2023/12/09 09:11:51;;;;;;;;;;;;;;;6.64;100.00;100533.38;4973295;28;19926;-73
2023/12/09 09:14:16;;;;;;;;;;;;;;;6.58;100.00;100520.47;4990051;28;20009;-72
2023/12/09 09:16:42;;;;;;;;;;;;;;;6.71;100.00;100512.53;4987559;28;20008;-73
2023/12/09 09:19:07;;;;;;;;;;;;;;;6.58;100.00;100469.81;4988126;28;19988;-72
2023/12/09 09:21:32;;;;;;;;;;;;;;;6.68;100.00;100489.53;4988600;28;19936;-73
2023/12/09 09:23:57;;;;;;;;;;;;;;;6.62;100.00;100479.31;4992644;28;19974;-72
2023/12/09 09:26:23;;;;;;;;;;;;;;;6.67;100.00;100461.16;4989797;28;19928;-72
2023/12/09 09:28:48;;;;;;;;;;;;;;;6.72;100.00;100459.03;4990052;28;19921;-72
2023/12/09 09:31:13;;;;;;;;;;;;;;;6.49;100.00;100460.56;4974404;28;19921;-73
2023/12/09 09:33:38;;;;;;;;;;;;;;;6.66;100.00;100464.78;4993072;28;19933;-72
2023/12/09 09:36:03;;;;;;;;;;;;;;;6.73;100.00;100459.91;4988466;28;20200;-73
2023/12/09 09:38:29;;;;;;;;;;;;;;;6.69;100.00;100461.06;4990245;28;20011;-72
2023/12/09 09:40:55;;;;;;;;;;;;;;;6.73;100.00;100443.91;4992169;28;19925;-73
2023/12/09 09:43:21;;;;;;;;;;;;;;;6.66;100.00;100454.09;4989026;28;20272;-71
2023/12/09 09:45:47;;;;;;;;;;;;;;;6.92;100.00;100454.16;4987736;28;19922;-73
2023/12/09 09:48:12;;;;;;;;;;;;;;;6.73;100.00;100442.06;4991693;28;20328;-72
2023/12/09 09:50:43;;;;;;;;;;;;;;;6.93;100.00;100442.50;4990520;28;20253;-73
2023/12/09 09:53:11;;;;;;;;;;;;;;;6.85;100.00;100421.69;4990053;28;19933;-72
2023/12/09 09:55:38;;;;;;;;;;;;;;;6.72;100.00;100444.84;4990674;28;20395;-72
2023/12/09 09:58:04;;;;;;;;;;;;;;;6.94;100.00;100424.69;4991670;28;19921;-73
2023/12/09 10:00:30;;;;;;;;;;;;;;;6.99;100.00;100426.09;4987781;28;20450;-72
2023/12/09 10:02:55;;;;;;;;;;;;;;;7.08;100.00;100415.72;4990959;28;20323;-72
2023/12/09 10:05:20;;;;;;;;;;;;;;;7.10;100.00;100403.13;4973351;28;19925;-72
2023/12/09 10:07:46;;;;;;;;;;;;;;;7.07;100.00;100398.84;4993768;28;20403;-73
2023/12/09 10:10:11;;;;;;;;;;;;;;;7.08;100.00;100383.69;4991901;28;19927;-72
2023/12/09 10:12:36;;;;;;;;;;;;;;;7.16;100.00;100381.31;4993489;28;19917;-72
2023/12/09 10:15:02;;;;;;;;;;;;;;;7.20;100.00;100364.13;4973678;28;20329;-72
2023/12/09 10:17:28;;;;;;;;;;;;;;;7.33;100.00;100356.09;4990974;28;19914;-73
2023/12/09 10:20:00;;;;;;;;;;;;;;;7.21;100.00;100344.47;4991149;28;19948;-73
2023/12/09 10:22:26;;;;;;;;;;;;;;;7.30;100.00;100327.78;4993323;28;19925;-72
2023/12/09 10:24:51;;;;;;;;;;;;;;;7.31;100.00;100320.63;4974654;28;20008;-73
2023/12/09 10:27:18;;;;;;;;;;;;;;;7.28;100.00;100342.22;4974805;28;19975;-72
2023/12/09 10:29:43;;;;;;;;;;;;;;;7.22;100.00;100307.97;4975034;28;20265;-73
2023/12/09 10:32:09;;;;;;;;;;;;;;;7.25;100.00;100292.56;4993975;28;20150;-74
2023/12/09 10:34:34;;;;;;;;;;;;;;;7.32;100.00;100290.28;4989479;28;20064;-72
2023/12/09 10:36:59;;;;;;;;;;;;;;;7.24;100.00;100285.50;4990365;28;19921;-73
2023/12/09 10:39:24;;;;;;;;;;;;;;;7.39;100.00;100278.19;4991323;28;19921;-73
2023/12/09 10:41:50;;;;;;;;;;;;;;;7.38;100.00;100264.97;4976755;28;19926;-72
2023/12/09 10:44:15;;;;;;;;;;;;;;;7.29;100.00;100267.34;4992565;28;19930;-73
2023/12/09 10:46:40;;;;;;;;;;;;;;;7.34;100.00;100248.28;4990592;28;19925;-72
2023/12/09 10:49:06;;;;;;;;;;;;;;;7.44;100.00;100240.44;4987561;28;19933;-73
2023/12/09 10:51:31;;;;;;;;;;;;;;;7.37;100.00;100237.38;4992136;28;19943;-73
2023/12/09 10:53:56;;;;;;;;;;;;;;;7.40;100.00;100222.97;4990643;28;19921;-73
2023/12/09 10:56:22;;;;;;;;;;;;;;;7.43;100.00;100214.72;4971883;28;19965;-73
2023/12/09 10:58:47;;;;;;;;;;;;;;;7.31;100.00;100205.78;4991208;28;20020;-73
2023/12/09 11:01:12;;;;;;;;;;;;;;;7.38;100.00;100200.88;4976586;28;19921;-73
2023/12/09 11:03:37;;;;;;;;;;;;;;;7.37;100.00;100193.81;4991255;28;19921;-72
2023/12/09 11:06:03;;;;;;;;;;;;;;;7.45;100.00;100191.41;4973430;28;19928;-73
2023/12/09 11:08:28;;;;;;;;;;;;;;;7.53;100.00;100188.19;4992570;28;19975;-72
2023/12/09 11:10:54;;;;;;;;;;;;;;;7.50;100.00;100173.22;4991922;28;19925;-73
2023/12/09 11:13:19;;;;;;;;;;;;;;;7.71;100.00;100164.53;4991630;28;19929;-73
2023/12/09 11:15:45;;;;;;;;;;;;;;;7.59;100.00;100166.31;4990714;28;20277;-72
2023/12/09 11:18:10;;;;;;;;;;;;;;;7.47;100.00;100150.28;4990306;28;19932;-73
2023/12/09 11:20:37;;;;;;;;;;;;;;;7.51;100.00;100142.88;4986492;28;20974;-72
2023/12/09 11:23:04;;;;;;;;;;;;;;;7.49;100.00;100118.09;4985354;28;20332;-73
2023/12/09 11:25:29;;;;;;;;;;;;;;;7.26;100.00;100099.34;4972541;28;20272;-72
2023/12/09 11:27:55;;;;;;;;;;;;;;;7.26;100.00;100109.19;4983377;28;20379;-72
2023/12/09 11:30:33;;;;;;;;;;;;;;;7.18;100.00;100109.72;4967858;28;20627;-73
2023/12/09 11:33:01;;;;;;;;;;;;;;;7.08;100.00;100093.56;4985277;28;20405;-74
2023/12/09 11:35:26;;;;;;;;;;;;;;;7.08;100.00;100074.03;4990500;28;19925;-72
2023/12/09 11:37:53;;;;;;;;;;;;;;;7.03;100.00;100064.56;4984243;28;19929;-73
2023/12/09 11:40:18;;;;;;;;;;;;;;;7.01;100.00;100054.97;4987144;28;19925;-75
2023/12/09 11:42:43;;;;;;;;;;;;;;;7.13;100.00;100037.19;4988852;28;19975;-73
2023/12/09 11:45:08;;;;;;;;;;;;;;;7.02;100.00;100020.16;4989676;28;20254;-73
2023/12/09 11:47:34;;;;;;;;;;;;;;;6.98;100.00;100013.34;4972371;28;19925;-73
2023/12/09 11:49:59;;;;;;;;;;;;;;;7.10;100.00;99997.38;4972580;28;19979;-73
2023/12/09 11:52:24;;;;;;;;;;;;;;;6.88;100.00;99985.66;4968209;28;20328;-74
2023/12/09 11:55:00;;;;;;;;;;;;;;;6.96;100.00;99969.91;4989575;28;20414;-75
2023/12/09 11:57:27;;;;;;;;;;;;;;;7.00;100.00;99968.69;4988521;28;19925;-74
2023/12/09 11:59:52;;;;;;;;;;;;;;;7.08;100.00;99962.75;4988049;28;19993;-73
2023/12/09 12:02:17;;;;;;;;;;;;;;;7.17;100.00;99959.41;4990434;28;19922;-75
2023/12/09 12:04:44;;;;;;;;;;;;;;;7.18;100.00;99950.41;4987571;28;19926;-73
2023/12/09 12:07:09;;;;;;;;;;;;;;;7.14;100.00;99946.28;4971431;28;19937;-73
2023/12/09 12:09:35;;;;;;;;;;;;;;;7.09;100.00;99939.59;4984721;28;20222;-73
2023/12/09 12:12:00;;;;;;;;;;;;;;;7.05;100.00;99917.63;4988847;28;19928;-74
2023/12/09 12:14:25;;;;;;;;;;;;;;;7.14;100.00;99895.56;4991438;28;19930;-76
2023/12/09 12:16:50;;;;;;;;;;;;;;;7.19;100.00;99895.19;4989304;28;19951;-74
2023/12/09 12:19:16;;;;;;;;;;;;;;;7.24;100.00;99878.81;4968458;28;19921;-74
2023/12/09 12:21:41;;;;;;;;;;;;;;;7.25;100.00;99861.84;4984505;28;20085;-73
2023/12/09 12:24:08;;;;;;;;;;;;;;;7.21;100.00;99853.19;4989998;28;19990;-74
2023/12/09 12:26:33;;;;;;;;;;;;;;;7.21;100.00;99842.53;4989615;28;19926;-73
2023/12/09 12:28:58;;;;;;;;;;;;;;;7.19;100.00;99839.13;4993652;28;19944;-75